Flight Track Log - Related Links

Times and Time Zones

All times are in EDT time to prevent confusion due to time zone crossing. See the N209EA flight status page for this flight to view local times or setup timezone preferences in your user account.

Time Position Orientation Groundspeed Altitude Reporting Facility
EDT Latitude Longitude Course Direction KTS MPH feet Rate Location/Type
Sat 02:06:38 PM 33.8333 -84.4000 73° East 228 262 5,000  Level Atlanta TRACON
Sat 02:07:38 PM 33.8333 -84.3167 90° East 258 297 5,000  Level Atlanta TRACON
Sat 02:08:38 PM 33.8500 -84.2333 76° East 260 299 5,000 900 Level Atlanta TRACON
Sat 02:09:38 PM 33.8667 -84.1500 76° East 238 274 6,800 1,909 Climbing Atlanta TRACON
Sat 02:10:28 PM 33.8672 -84.0889 89° East 231 266 8,500 1,745 Climbing Atlanta Center
Sat 02:11:28 PM 33.8736 -84.0164 84° East 231 266 10,000 1,300 Climbing Atlanta Center
Sat 02:12:28 PM 33.8819 -83.9336 83° East 240 276 11,100 1,200 Climbing Atlanta Center
Sat 02:13:28 PM 33.8858 -83.8486 87° East 245 282 12,400 1,300 Climbing Atlanta Center
Sat 02:14:28 PM 33.9025 -83.7661 76° East 252 290 13,700 1,600 Climbing Atlanta Center
Sat 02:15:28 PM 33.9461 -83.7008 51° Northeast 246 283 15,600 1,950 Climbing Atlanta Center
Sat 02:16:28 PM 33.9836 -83.6406 53° Northeast 232 267 17,600 1,650 Climbing Atlanta Center
Sat 02:17:28 PM 34.0189 -83.5828 54° Northeast 220 253 18,900 700 Climbing Atlanta Center
Sat 02:18:28 PM 34.0583 -83.5222 52° Northeast 228 262 19,000 50 Climbing Atlanta Center
Sat 02:19:28 PM 34.1081 -83.4417 53° Northeast 272 313 19,000  Level Atlanta Center
Sat 02:20:28 PM 34.1597 -83.3558 54° Northeast 303 349 19,000 500 Level Atlanta Center
Sat 02:21:28 PM 34.2114 -83.2700 54° Northeast 313 360 20,000 500 Climbing Atlanta Center
Sat 02:22:28 PM 34.2631 -83.1842 54° Northeast 320 368 20,000 900 Level Atlanta Center
Sat 02:23:28 PM 34.3144 -83.1058 52° Northeast 309 356 21,800 1,000 Climbing Atlanta Center
Sat 02:24:28 PM 34.3619 -83.0247 55° Northeast 294 338 22,000 600 Climbing Atlanta Center
Sat 02:25:28 PM 34.4194 -82.9308 53° Northeast 303 349 23,000 500 Climbing Atlanta Center
Sat 02:26:28 PM 34.4731 -82.8444 53° Northeast 308 354 23,000  Level Atlanta Center
Sat 02:27:28 PM 34.5306 -82.7528 53° Northeast 326 375 23,000  Level Atlanta Center
Sat 02:28:28 PM 34.5900 -82.6611 52° Northeast 333 383 23,000  Level Atlanta Center
Sat 02:29:28 PM 34.6433 -82.5769 52° Northeast 343 395 23,000  Level Atlanta Center
Sat 02:30:28 PM 34.6986 -82.4825 55° Northeast 343 395 23,000  Level Atlanta Center
Sat 02:31:28 PM 34.7578 -82.3853 53° Northeast 348 400 23,000  Level Atlanta Center
Sat 02:32:28 PM 34.8169 -82.2906 53° Northeast 348 400 23,000  Level Atlanta Center
Sat 02:33:28 PM 34.8719 -82.1931 55° Northeast 348 400 23,000  Level Atlanta Center
Sat 02:34:28 PM 34.9369 -82.0878 53° Northeast 343 395 23,000 -50 Level Atlanta Center
Sat 02:35:28 PM 34.9961 -81.9928 53° Northeast 350 403 22,900 -800 Descending Atlanta Center
Sat 02:36:28 PM 35.0569 -81.8897 54° Northeast 355 409 21,400 -1,600 Descending Atlanta Center
Sat 02:37:28 PM 35.1069 -81.7742 62° Northeast 371 427 19,700 -1,750 Descending Atlanta Center
Sat 02:38:28 PM 35.1611 -81.6633 59° Northeast 377 434 17,900 -1,350 Descending Atlanta Center
Sat 02:39:28 PM 35.2089 -81.5503 63° Northeast 377 434 17,000 -450 Descending Atlanta Center
Sat 02:40:28 PM 35.2589 -81.4444 60° Northeast 366 421 17,000 -50 Level Atlanta Center
Sat 02:41:28 PM 35.3047 -81.3461 60° Northeast 344 396 16,900 -700 Descending Atlanta Center
Sat 02:42:28 PM 35.3506 -81.2428 61° Northeast 338 389 15,600 -950 Descending Atlanta Center
Sat 02:43:28 PM 35.4003 -81.1367 60° Northeast 351 404 15,000 -1,100 Descending Atlanta Center
Sat 02:44:28 PM 35.4478 -81.0356 60° Northeast 345 397 13,400 -1,660 Descending Atlanta Center
Sat 02:45:02 PM 35.4736 -80.9811 60° Northeast 340 391 12,400 -2,427 Descending Atlanta Center
Sat 02:45:57 PM 35.5153 -80.8928 60° Northeast 318 366 9,800 -2,791 Descending Atlanta Center
Sat 02:46:28 PM 35.5347 -80.8436 64° Northeast 325 374 8,400 -2,703 Descending Atlanta Center
Sat 02:47:28 PM 35.5725 -80.7656 59° Northeast 282 325 5,700 -2,600 Descending Atlanta Center
Sat 02:48:28 PM 35.6058 -80.6900 61° Northeast 246 283 3,200 -1,350 Descending Atlanta Center
Sat 02:49:28 PM 35.6333 -80.6303 60° Northeast 236 272 3,000 -150 Descending Atlanta Center
Sat 02:50:28 PM 35.6567 -80.5731 63° Northeast 202 232 2,900  Descending Atlanta Center
Sat 02:51:28 PM 35.6633 -80.5089 83° East 181 208 3,000 50 Climbing Atlanta Center
Sat 02:52:28 PM 35.6783 -80.4519 72° East 181 208 3,000 -150 Level Atlanta Center
Sat 02:53:28 PM 35.7086 -80.4122 47° Northeast 164 189 2,700 -500 Descending Atlanta Center
Sat 02:54:28 PM 35.7325 -80.3781 49° Northeast 137 158 2,000 -450 Descending Atlanta Center
Sat 02:55:28 PM 35.7583 -80.3383 51° Northeast 131 151 1,800 3,500 Descending Atlanta Center
Sat 02:56:28 PM 35.7825 -80.3067 47° Northeast 131 151 9,000 7,200 Climbing Atlanta Center
Sat 02:58:00 PM 35.7811 -80.3038 68° East  Level Estimated

Login

Don't have an account? Register now (free) for customized features, flight alerts, and more!